sensor_id;sensor_type;location;lat;lon;timestamp;pressure;altitude;pressure_sealevel;temperature;humidity
18436;BME280;9346;52.006;4.720;2024-01-15T00:00:08;100300.06;;;4.18;100.00
18436;BME280;9346;52.006;4.720;2024-01-15T00:02:35;100298.66;;;4.15;100.00
18436;BME280;9346;52.006;4.720;2024-01-15T00:05:03;100290.97;;;4.12;100.00
18436;BME280;9346;52.006;4.720;2024-01-15T00:07:30;100294.19;;;4.09;100.00
18436;BME280;9346;52.006;4.720;2024-01-15T00:09:57;100289.22;;;4.06;100.00
18436;BME280;9346;52.006;4.720;2024-01-15T00:12:26;100283.19;;;4.04;100.00
18436;BME280;9346;52.006;4.720;2024-01-15T00:14:57;100281.28;;;4.05;100.00
18436;BME280;9346;52.006;4.720;2024-01-15T00:17:24;100285.09;;;4.04;100.00
18436;BME280;9346;52.006;4.720;2024-01-15T00:19:51;100281.78;;;4.02;100.00
18436;BME280;9346;52.006;4.720;2024-01-15T00:22:19;100271.13;;;4.00;100.00
18436;BME280;9346;52.006;4.720;2024-01-15T00:24:46;100270.03;;;4.01;100.00
18436;BME280;9346;52.006;4.720;2024-01-15T00:27:13;100266.50;;;4.01;100.00
18436;BME280;9346;52.006;4.720;2024-01-15T00:29:40;100256.66;;;4.00;100.00
18436;BME280;9346;52.006;4.720;2024-01-15T00:32:09;100261.06;;;4.01;100.00
18436;BME280;9346;52.006;4.720;2024-01-15T00:34:36;100260.47;;;3.99;100.00
18436;BME280;9346;52.006;4.720;2024-01-15T00:37:03;100252.03;;;4.00;100.00
18436;BME280;9346;52.006;4.720;2024-01-15T00:39:34;100255.50;;;3.96;100.00
18436;BME280;9346;52.006;4.720;2024-01-15T00:42:04;100243.78;;;3.95;100.00
18436;BME280;9346;52.006;4.720;2024-01-15T00:44:31;100248.91;;;3.92;100.00
18436;BME280;9346;52.006;4.720;2024-01-15T00:46:59;100242.59;;;3.91;100.00
18436;BME280;9346;52.006;4.720;2024-01-15T00:49:29;100242.06;;;3.89;100.00
18436;BME280;9346;52.006;4.720;2024-01-15T00:51:56;100239.31;;;3.89;100.00
18436;BME280;9346;52.006;4.720;2024-01-15T00:54:23;100236.13;;;3.92;100.00
18436;BME280;9346;52.006;4.720;2024-01-15T00:56:50;100227.09;;;3.92;100.00
18436;BME280;9346;52.006;4.720;2024-01-15T00:59:18;100230.91;;;3.91;100.00
18436;BME280;9346;52.006;4.720;2024-01-15T01:01:46;100226.25;;;3.91;100.00
18436;BME280;9346;52.006;4.720;2024-01-15T01:04:13;100230.66;;;3.92;100.00
18436;BME280;9346;52.006;4.720;2024-01-15T01:06:42;100226.25;;;3.91;100.00
18436;BME280;9346;52.006;4.720;2024-01-15T01:09:12;100227.94;;;3.92;100.00
18436;BME280;9346;52.006;4.720;2024-01-15T01:11:39;100227.94;;;3.92;100.00
18436;BME280;9346;52.006;4.720;2024-01-15T01:14:06;100227.09;;;3.92;100.00
18436;BME280;9346;52.006;4.720;2024-01-15T01:16:33;100214.31;;;3.92;100.00
18436;BME280;9346;52.006;4.720;2024-01-15T01:19:06;100227.94;;;3.92;100.00
18436;BME280;9346;52.006;4.720;2024-01-15T01:21:34;100219.16;;;3.90;100.00
18436;BME280;9346;52.006;4.720;2024-01-15T01:24:03;100213.97;;;3.89;100.00
18436;BME280;9346;52.006;4.720;2024-01-15T01:26:30;100220.50;;;3.88;100.00
18436;BME280;9346;52.006;4.720;2024-01-15T01:28:57;100225.94;;;3.88;100.00
18436;BME280;9346;52.006;4.720;2024-01-15T01:31:24;100216.34;;;3.85;100.00
18436;BME280;9346;52.006;4.720;2024-01-15T01:33:51;100217.19;;;3.86;100.00
18436;BME280;9346;52.006;4.720;2024-01-15T01:36:21;100220.16;;;3.84;100.00
18436;BME280;9346;52.006;4.720;2024-01-15T01:38:48;100219.06;;;3.85;100.00
18436;BME280;9346;52.006;4.720;2024-01-15T01:41:17;100206.88;;;3.88;100.00
18436;BME280;9346;52.006;4.720;2024-01-15T01:43:47;100213.72;;;3.90;100.00
18436;BME280;9346;52.006;4.720;2024-01-15T01:46:18;100209.91;;;3.91;100.00
18436;BME280;9346;52.006;4.720;2024-01-15T01:48:45;100214.31;;;3.92;100.00
18436;BME280;9346;52.006;4.720;2024-01-15T01:51:12;100208.28;;;3.90;100.00
18436;BME280;9346;52.006;4.720;2024-01-15T01:53:40;100205.31;;;3.92;100.00
18436;BME280;9346;52.006;4.720;2024-01-15T01:56:07;100211.84;;;3.91;100.00
18436;BME280;9346;52.006;4.720;2024-01-15T01:58:40;100214.56;;;3.91;100.00
18436;BME280;9346;52.006;4.720;2024-01-15T02:01:08;100209.34;;;3.89;100.00
18436;BME280;9346;52.006;4.720;2024-01-15T02:03:35;100210.41;;;3.88;100.00
18436;BME280;9346;52.006;4.720;2024-01-15T02:06:02;100211.25;;;3.89;100.00
18436;BME280;9346;52.006;4.720;2024-01-15T02:08:30;100206.03;;;3.87;100.00
18436;BME280;9346;52.006;4.720;2024-01-15T02:11:07;100213.63;;;3.85;100.00
18436;BME280;9346;52.006;4.720;2024-01-15T02:13:34;100206.03;;;3.87;100.00
18436;BME280;9346;52.006;4.720;2024-01-15T02:16:04;100189.69;;;3.87;100.00
18436;BME280;9346;52.006;4.720;2024-01-15T02:18:40;100198.94;;;3.86;100.00
18436;BME280;9346;52.006;4.720;2024-01-15T02:21:07;100201.06;;;3.84;100.00
18436;BME280;9346;52.006;4.720;2024-01-15T02:23:36;100212.22;;;3.83;100.00
18436;BME280;9346;52.006;4.720;2024-01-15T02:26:04;100207.59;;;3.83;100.00
18436;BME280;9346;52.006;4.720;2024-01-15T02:28:33;100193.41;;;3.81;100.00
18436;BME280;9346;52.006;4.720;2024-01-15T02:31:03;100195.03;;;3.82;100.00
18436;BME280;9346;52.006;4.720;2024-01-15T02:33:30;100195.03;;;3.82;100.00
18436;BME280;9346;52.006;4.720;2024-01-15T02:36:00;100194.47;;;3.80;100.00
18436;BME280;9346;52.006;4.720;2024-01-15T02:38:30;100194.47;;;3.80;100.00
18436;BME280;9346;52.006;4.720;2024-01-15T02:40:59;100196.13;;;3.81;100.00
18436;BME280;9346;52.006;4.720;2024-01-15T02:43:26;100191.16;;;3.78;100.00
18436;BME280;9346;52.006;4.720;2024-01-15T02:45:55;100184.91;;;3.78;100.00
18436;BME280;9346;52.006;4.720;2024-01-15T02:48:22;100175.06;;;3.77;100.00
18436;BME280;9346;52.006;4.720;2024-01-15T02:50:49;100175.56;;;3.74;100.00
18436;BME280;9346;52.006;4.720;2024-01-15T02:53:17;100189.75;;;3.76;100.00
18436;BME280;9346;52.006;4.720;2024-01-15T02:55:44;100185.16;;;3.76;100.00
18436;BME280;9346;52.006;4.720;2024-01-15T02:58:14;100186.44;;;3.74;100.00
18436;BME280;9346;52.006;4.720;2024-01-15T03:00:42;100177.97;;;3.70;100.00
18436;BME280;9346;52.006;4.720;2024-01-15T03:03:09;100178.19;;;3.69;100.00
18436;BME280;9346;52.006;4.720;2024-01-15T03:05:36;100177.38;;;3.68;100.00
18436;BME280;9346;52.006;4.720;2024-01-15T03:08:03;100188.25;;;3.68;100.00
18436;BME280;9346;52.006;4.720;2024-01-15T03:10:31;100181.50;;;3.71;100.00
18436;BME280;9346;52.006;4.720;2024-01-15T03:12:58;100175.25;;;3.70;100.00
18436;BME280;9346;52.006;4.720;2024-01-15T03:15:35;100175.25;;;3.70;100.00
18436;BME280;9346;52.006;4.720;2024-01-15T03:18:04;100179.13;;;3.74;100.00
18436;BME280;9346;52.006;4.720;2024-01-15T03:20:33;100178.28;;;3.74;100.00
18436;BME280;9346;52.006;4.720;2024-01-15T03:23:20;100169.84;;;3.75;100.00
18436;BME280;9346;52.006;4.720;2024-01-15T03:25:54;100166.88;;;3.77;100.00
18436;BME280;9346;52.006;4.720;2024-01-15T03:28:24;100169.63;;;3.77;100.00
18436;BME280;9346;52.006;4.720;2024-01-15T03:31:15;100165.25;;;3.76;100.00
18436;BME280;9346;52.006;4.720;2024-01-15T03:33:46;100172.09;;;3.78;100.00
18436;BME280;9346;52.006;4.720;2024-01-15T03:36:17;100161.19;;;3.78;100.00
18436;BME280;9346;52.006;4.720;2024-01-15T03:38:44;100165.34;;;3.81;100.00
18436;BME280;9346;52.006;4.720;2024-01-15T03:41:12;100171.59;;;3.81;100.00
18436;BME280;9346;52.006;4.720;2024-01-15T03:43:39;100170.78;;;3.81;100.00
18436;BME280;9346;52.006;4.720;2024-01-15T03:46:09;100174.31;;;3.81;100.00
18436;BME280;9346;52.006;4.720;2024-01-15T03:48:39;100179.78;;;3.81;100.00
18436;BME280;9346;52.006;4.720;2024-01-15T03:51:06;100172.69;;;3.80;100.00
18436;BME280;9346;52.006;4.720;2024-01-15T03:53:34;100170.22;;;3.79;100.00
18436;BME280;9346;52.006;4.720;2024-01-15T03:56:03;100162.78;;;3.74;100.00
18436;BME280;9346;52.006;4.720;2024-01-15T03:58:38;100154.59;;;3.74;100.00
18436;BME280;9346;52.006;4.720;2024-01-15T04:01:09;100163.84;;;3.73;100.00
18436;BME280;9346;52.006;4.720;2024-01-15T04:03:37;100171.09;;;3.68;100.00
18436;BME280;9346;52.006;4.720;2024-01-15T04:06:06;100169.19;;;3.68;100.00
18436;BME280;9346;52.006;4.720;2024-01-15T04:08:34;100161.63;;;3.70;100.00
18436;BME280;9346;52.006;4.720;2024-01-15T04:11:03;100155.81;;;3.67;100.00
18436;BME280;9346;52.006;4.720;2024-01-15T04:13:32;100158.53;;;3.67;100.00
18436;BME280;9346;52.006;4.720;2024-01-15T04:16:04;100154.75;;;3.68;100.00
18436;BME280;9346;52.006;4.720;2024-01-15T04:18:35;100156.16;;;3.70;100.00
18436;BME280;9346;52.006;4.720;2024-01-15T04:21:04;100158.91;;;3.70;100.00
18436;BME280;9346;52.006;4.720;2024-01-15T04:23:32;100149.28;;;3.68;100.00
18436;BME280;9346;52.006;4.720;2024-01-15T04:26:00;100158.91;;;3.70;100.00
18436;BME280;9346;52.006;4.720;2024-01-15T04:28:29;100150.72;;;3.70;100.00
18436;BME280;9346;52.006;4.720;2024-01-15T04:30:58;100141.22;;;3.73;100.00
18436;BME280;9346;52.006;4.720;2024-01-15T04:33:25;100137.19;;;3.75;100.00
18436;BME280;9346;52.006;4.720;2024-01-15T04:35:54;100143.22;;;3.77;100.00
18436;BME280;9346;52.006;4.720;2024-01-15T04:38:21;100141.09;;;3.79;100.00
18436;BME280;9346;52.006;4.720;2024-01-15T04:40:51;100136.44;;;3.80;100.00
18436;BME280;9346;52.006;4.720;2024-01-15T04:43:23;100137.03;;;3.82;100.00
18436;BME280;9346;52.006;4.720;2024-01-15T04:45:50;100123.41;;;3.82;100.00
18436;BME280;9346;52.006;4.720;2024-01-15T04:48:18;100123.66;;;3.80;100.00
18436;BME280;9346;52.006;4.720;2024-01-15T04:50:54;100134.78;;;3.79;100.00
18436;BME280;9346;52.006;4.720;2024-01-15T04:53:22;100113.50;;;3.76;100.00
18436;BME280;9346;52.006;4.720;2024-01-15T04:55:51;100124.38;;;3.76;100.00
18436;BME280;9346;52.006;4.720;2024-01-15T04:58:18;100128.09;;;3.70;100.00
18436;BME280;9346;52.006;4.720;2024-01-15T05:00:45;100128.34;;;3.68;100.00
18436;BME280;9346;52.006;4.720;2024-01-15T05:03:20;100121.41;;;3.61;100.00
18436;BME280;9346;52.006;4.720;2024-01-15T05:05:50;100117.78;;;3.55;100.00
18436;BME280;9346;52.006;4.720;2024-01-15T05:08:19;100108.09;;;3.48;100.00
18436;BME280;9346;52.006;4.720;2024-01-15T05:10:49;100109.44;;;3.45;100.00
18436;BME280;9346;52.006;4.720;2024-01-15T05:13:19;100107.28;;;3.47;100.00
18436;BME280;9346;52.006;4.720;2024-01-15T05:15:46;100109.19;;;3.47;100.00
18436;BME280;9346;52.006;4.720;2024-01-15T05:18:16;100109.19;;;3.47;100.00
18436;BME280;9346;52.006;4.720;2024-01-15T05:20:47;100110.03;;;3.47;100.00
18436;BME280;9346;52.006;4.720;2024-01-15T05:23:24;100108.44;;;3.51;100.00
18436;BME280;9346;52.006;4.720;2024-01-15T05:25:54;100103.84;;;3.52;100.00
18436;BME280;9346;52.006;4.720;2024-01-15T05:28:22;100108.22;;;3.53;100.00
18436;BME280;9346;52.006;4.720;2024-01-15T05:30:52;100109.28;;;3.52;100.00
18436;BME280;9346;52.006;4.720;2024-01-15T05:33:23;100111.16;;;3.51;100.00
18436;BME280;9346;52.006;4.720;2024-01-15T05:35:53;100110.03;;;3.47;100.00
18436;BME280;9346;52.006;4.720;2024-01-15T05:38:30;100116.94;;;3.38;100.00
18436;BME280;9346;52.006;4.720;2024-01-15T05:41:01;100113.28;;;3.33;100.00
18436;BME280;9346;52.006;4.720;2024-01-15T05:43:28;100108.34;;;3.30;100.00
18436;BME280;9346;52.006;4.720;2024-01-15T05:45:56;100102.53;;;3.26;100.00
18436;BME280;9346;52.006;4.720;2024-01-15T05:48:23;100108.59;;;3.28;100.00
18436;BME280;9346;52.006;4.720;2024-01-15T06:01:06;100098.59;;;3.34;100.00
18436;BME280;9346;52.006;4.720;2024-01-15T06:03:37;100087.13;;;3.32;100.00
18436;BME280;9346;52.006;4.720;2024-01-15T06:06:04;100098.84;;;3.32;100.00
18436;BME280;9346;52.006;4.720;2024-01-15T06:08:35;100090.09;;;3.30;100.00
18436;BME280;9346;52.006;4.720;2024-01-15T06:11:04;100080.63;;;3.33;100.00
18436;BME280;9346;52.006;4.720;2024-01-15T06:13:32;100086.06;;;3.33;100.00
18436;BME280;9346;52.006;4.720;2024-01-15T06:16:02;100085.59;;;3.36;100.00
18436;BME280;9346;52.006;4.720;2024-01-15T06:18:33;100079.31;;;3.35;100.00
18436;BME280;9346;52.006;4.720;2024-01-15T06:21:00;100077.16;;;3.37;100.00
18436;BME280;9346;52.006;4.720;2024-01-15T06:23:28;100090.75;;;3.37;100.00
18436;BME280;9346;52.006;4.720;2024-01-15T06:25:56;100107.69;;;3.39;100.00
18436;BME280;9346;52.006;4.720;2024-01-15T06:28:23;100104.38;;;3.37;100.00
18436;BME280;9346;52.006;4.720;2024-01-15T06:30:55;100091.53;;;3.33;100.00
18436;BME280;9346;52.006;4.720;2024-01-15T06:33:25;100104.53;;;3.31;100.00
18436;BME280;9346;52.006;4.720;2024-01-15T06:35:54;100119.53;;;3.33;100.00
18436;BME280;9346;52.006;4.720;2024-01-15T06:38:22;100118.50;;;3.34;100.00
18436;BME280;9346;52.006;4.720;2024-01-15T06:40:50;100123.34;;;3.32;100.00
18436;BME280;9346;52.006;4.720;2024-01-15T06:43:19;100115.31;;;3.26;100.00
18436;BME280;9346;52.006;4.720;2024-01-15T06:45:47;100113.91;;;3.23;100.00
18436;BME280;9346;52.006;4.720;2024-01-15T06:48:15;100089.00;;;3.15;100.00
18436;BME280;9346;52.006;4.720;2024-01-15T06:50:42;100068.44;;;3.07;100.00
18436;BME280;9346;52.006;4.720;2024-01-15T06:53:28;100079.09;;;3.09;100.00
18436;BME280;9346;52.006;4.720;2024-01-15T06:55:56;100083.38;;;3.05;100.00
18436;BME280;9346;52.006;4.720;2024-01-15T06:58:24;100095.09;;;3.05;100.00
18436;BME280;9346;52.006;4.720;2024-01-15T07:00:59;100102.50;;;3.10;100.00
18436;BME280;9346;52.006;4.720;2024-01-15T07:03:27;100117.66;;;3.06;100.00
18436;BME280;9346;52.006;4.720;2024-01-15T07:05:55;100133.75;;;3.07;100.00
18436;BME280;9346;52.006;4.720;2024-01-15T07:08:30;100132.59;;;3.03;100.00
18436;BME280;9346;52.006;4.720;2024-01-15T07:10:57;100141.00;;;3.02;100.00
18436;BME280;9346;52.006;4.720;2024-01-15T07:13:24;100141.94;;;2.96;100.00
18436;BME280;9346;52.006;4.720;2024-01-15T07:15:54;100131.78;;;2.91;100.00
18436;BME280;9346;52.006;4.720;2024-01-15T07:18:21;100123.09;;;2.78;100.00
18436;BME280;9346;52.006;4.720;2024-01-15T07:20:48;100132.53;;;2.75;100.00
18436;BME280;9346;52.006;4.720;2024-01-15T07:23:15;100124.31;;;2.70;100.00
18436;BME280;9346;52.006;4.720;2024-01-15T07:25:44;100114.59;;;2.74;100.00
18436;BME280;9346;52.006;4.720;2024-01-15T07:28:11;100110.06;;;2.80;100.00
18436;BME280;9346;52.006;4.720;2024-01-15T07:30:38;100103.06;;;2.84;100.00
18436;BME280;9346;52.006;4.720;2024-01-15T07:33:05;100104.03;;;2.89;100.00
18436;BME280;9346;52.006;4.720;2024-01-15T07:35:32;100095.38;;;2.92;100.00
18436;BME280;9346;52.006;4.720;2024-01-15T07:37:59;100097.03;;;2.93;100.00
18436;BME280;9346;52.006;4.720;2024-01-15T07:40:32;100101.75;;;2.98;100.00
18436;BME280;9346;52.006;4.720;2024-01-15T07:43:08;100109.75;;;3.04;100.00
18436;BME280;9346;52.006;4.720;2024-01-15T07:45:37;100097.56;;;3.07;100.00
18436;BME280;9346;52.006;4.720;2024-01-15T07:48:05;100100.28;;;3.07;100.00
18436;BME280;9346;52.006;4.720;2024-01-15T07:50:32;100106.06;;;3.10;100.00
18436;BME280;9346;52.006;4.720;2024-01-15T07:52:59;100097.91;;;3.10;100.00
18436;BME280;9346;52.006;4.720;2024-01-15T07:55:28;100112.09;;;3.12;100.00
18436;BME280;9346;52.006;4.720;2024-01-15T07:57:55;100120.00;;;3.14;100.00
18436;BME280;9346;52.006;4.720;2024-01-15T08:00:27;100122.25;;;3.17;100.00
18436;BME280;9346;52.006;4.720;2024-01-15T08:02:54;100114.09;;;3.17;100.00
18436;BME280;9346;52.006;4.720;2024-01-15T08:05:29;100118.69;;;3.16;100.00
18436;BME280;9346;52.006;4.720;2024-01-15T08:07:57;100115.38;;;3.14;100.00
18436;BME280;9346;52.006;4.720;2024-01-15T08:10:23;100117.03;;;3.15;100.00
18436;BME280;9346;52.006;4.720;2024-01-15T08:12:50;100113.25;;;3.16;100.00
18436;BME280;9346;52.006;4.720;2024-01-15T08:15:17;100117.84;;;3.16;100.00
18436;BME280;9346;52.006;4.720;2024-01-15T08:17:46;100125.53;;;3.19;100.00
18436;BME280;9346;52.006;4.720;2024-01-15T08:20:13;100126.38;;;3.19;100.00
18436;BME280;9346;52.006;4.720;2024-01-15T08:22:41;100128.84;;;3.21;100.00
18436;BME280;9346;52.006;4.720;2024-01-15T08:25:08;100121.16;;;3.18;100.00
18436;BME280;9346;52.006;4.720;2024-01-15T08:27:36;100113.50;;;3.15;100.00
18436;BME280;9346;52.006;4.720;2024-01-15T08:30:03;100112.41;;;3.16;100.00
18436;BME280;9346;52.006;4.720;2024-01-15T08:32:30;100108.03;;;3.15;100.00
18436;BME280;9346;52.006;4.720;2024-01-15T08:34:59;100116.22;;;3.15;100.00
18436;BME280;9346;52.006;4.720;2024-01-15T08:37:25;100107.81;;;3.16;100.00
18436;BME280;9346;52.006;4.720;2024-01-15T08:39:52;100107.81;;;3.16;100.00
18436;BME280;9346;52.006;4.720;2024-01-15T08:42:20;100100.81;;;3.20;100.00
18436;BME280;9346;52.006;4.720;2024-01-15T08:44:47;100094.03;;;3.23;100.00
18436;BME280;9346;52.006;4.720;2024-01-15T08:47:14;100095.72;;;3.24;100.00
18436;BME280;9346;52.006;4.720;2024-01-15T08:49:41;100106.34;;;3.25;100.00
18436;BME280;9346;52.006;4.720;2024-01-15T08:52:11;100099.59;;;3.28;100.00
18436;BME280;9346;52.006;4.720;2024-01-15T08:54:56;100099.94;;;3.31;100.00
18436;BME280;9346;52.006;4.720;2024-01-15T08:57:22;100099.44;;;3.34;100.00
18436;BME280;9346;52.006;4.720;2024-01-15T08:59:50;100124.25;;;3.38;100.00
18436;BME280;9346;52.006;4.720;2024-01-15T09:02:17;100126.00;;;3.44;100.00
18436;BME280;9346;52.006;4.720;2024-01-15T09:04:44;100131.81;;;3.47;100.00
18436;BME280;9346;52.006;4.720;2024-01-15T09:07:13;100138.06;;;3.48;100.00
18436;BME280;9346;52.006;4.720;2024-01-15T09:09:40;100157.34;;;3.46;100.00
18436;BME280;9346;52.006;4.720;2024-01-15T09:12:11;100149.59;;;3.38;100.00
18436;BME280;9346;52.006;4.720;2024-01-15T09:14:40;100148.34;;;3.29;100.00
18436;BME280;9346;52.006;4.720;2024-01-15T09:17:09;100143.19;;;3.16;100.00
18436;BME280;9346;52.006;4.720;2024-01-15T09:19:37;100151.16;;;3.06;100.00
18436;BME280;9346;52.006;4.720;2024-01-15T09:22:05;100158.94;;;3.03;100.00
18436;BME280;9346;52.006;4.720;2024-01-15T09:24:33;100153.50;;;3.03;100.00
18436;BME280;9346;52.006;4.720;2024-01-15T09:27:00;100145.34;;;3.03;100.00
18436;BME280;9346;52.006;4.720;2024-01-15T09:29:28;100147.50;;;3.01;100.00
18436;BME280;9346;52.006;4.720;2024-01-15T09:31:55;100138.88;;;3.04;100.00
18436;BME280;9346;52.006;4.720;2024-01-15T09:34:22;100143.56;;;3.08;100.00
18436;BME280;9346;52.006;4.720;2024-01-15T09:36:49;100129.72;;;3.10;100.00
18436;BME280;9346;52.006;4.720;2024-01-15T09:39:16;100136.34;;;3.14;100.00
18436;BME280;9346;52.006;4.720;2024-01-15T09:41:46;100133.84;;;3.12;100.00
18436;BME280;9346;52.006;4.720;2024-01-15T09:44:14;100140.69;;;3.15;100.00
18436;BME280;9346;52.006;4.720;2024-01-15T09:46:41;100141.06;;;3.18;100.00
18436;BME280;9346;52.006;4.720;2024-01-15T09:49:10;100137.84;;;3.21;100.00
18436;BME280;9346;52.006;4.720;2024-01-15T09:51:37;100137.84;;;3.21;100.00
18436;BME280;9346;52.006;4.720;2024-01-15T09:54:06;100126.97;;;3.21;100.00
18436;BME280;9346;52.006;4.720;2024-01-15T09:56:34;100136.53;;;3.24;100.00
18436;BME280;9346;52.006;4.720;2024-01-15T09:59:02;100125.41;;;3.25;100.00
18436;BME280;9346;52.006;4.720;2024-01-15T10:01:31;100128.69;;;3.27;100.00
18436;BME280;9346;52.006;4.720;2024-01-15T10:03:58;100124.66;;;3.30;100.00
18436;BME280;9346;52.006;4.720;2024-01-15T10:06:27;100120.13;;;3.35;100.00
18436;BME280;9346;52.006;4.720;2024-01-15T10:08:56;100132.66;;;3.36;100.00
18436;BME280;9346;52.006;4.720;2024-01-15T10:11:24;100133.25;;;3.38;100.00
18436;BME280;9346;52.006;4.720;2024-01-15T10:13:54;100141.19;;;3.40;100.00
18436;BME280;9346;52.006;4.720;2024-01-15T10:16:26;100146.38;;;3.41;100.00
18436;BME280;9346;52.006;4.720;2024-01-15T10:18:53;100148.63;;;3.44;100.00
18436;BME280;9346;52.006;4.720;2024-01-15T10:21:20;100145.41;;;3.47;100.00
18436;BME280;9346;52.006;4.720;2024-01-15T10:23:47;100145.72;;;3.51;100.00
18436;BME280;9346;52.006;4.720;2024-01-15T10:26:13;100152.09;;;3.56;100.00
18436;BME280;9346;52.006;4.720;2024-01-15T10:28:44;100141.19;;;3.56;100.00
18436;BME280;9346;52.006;4.720;2024-01-15T10:31:14;100141.44;;;3.55;100.00
18436;BME280;9346;52.006;4.720;2024-01-15T10:34:11;100143.44;;;3.59;100.00
18436;BME280;9346;52.006;4.720;2024-01-15T10:36:45;100145.66;;;3.62;100.00
18436;BME280;9346;52.006;4.720;2024-01-15T10:39:16;100151.59;;;3.59;100.00
18436;BME280;9346;52.006;4.720;2024-01-15T10:41:43;100161.44;;;3.60;100.00
18436;BME280;9346;52.006;4.720;2024-01-15T10:44:09;100167.63;;;3.56;100.00
18436;BME280;9346;52.006;4.720;2024-01-15T10:46:37;100151.41;;;3.49;100.00
18436;BME280;9346;52.006;4.720;2024-01-15T10:49:05;100147.31;;;3.47;100.00
18436;BME280;9346;52.006;4.720;2024-01-15T10:51:37;100141.03;;;3.46;100.00
18436;BME280;9346;52.006;4.720;2024-01-15T10:54:04;100145.16;;;3.49;100.00
18436;BME280;9346;52.006;4.720;2024-01-15T10:56:32;100148.63;;;3.44;100.00
18436;BME280;9346;52.006;4.720;2024-01-15T10:59:00;100148.63;;;3.44;100.00
18436;BME280;9346;52.006;4.720;2024-01-15T11:01:28;100163.97;;;3.50;100.00
18436;BME280;9346;52.006;4.720;2024-01-15T11:03:56;100168.41;;;3.56;100.00
18436;BME280;9346;52.006;4.720;2024-01-15T11:09:52;100172.75;;;3.69;100.00
18436;BME280;9346;52.006;4.720;2024-01-15T11:12:21;100159.69;;;3.71;100.00
18436;BME280;9346;52.006;4.720;2024-01-15T11:14:51;100153.75;;;3.74;100.00
18436;BME280;9346;52.006;4.720;2024-01-15T11:17:20;100148.06;;;3.75;100.00
18436;BME280;9346;52.006;4.720;2024-01-15T11:19:48;100165.00;;;3.77;100.00
18436;BME280;9346;52.006;4.720;2024-01-15T11:22:48;100156.34;;;3.80;100.00
18436;BME280;9346;52.006;4.720;2024-01-15T11:25:34;100161.06;;;3.85;100.00
18436;BME280;9346;52.006;4.720;2024-01-15T11:28:04;100158.66;;;3.88;100.00
18436;BME280;9346;52.006;4.720;2024-01-15T11:30:31;100158.75;;;3.93;100.00
18436;BME280;9346;52.006;4.720;2024-01-15T11:33:03;100167.81;;;3.99;100.00
18436;BME280;9346;52.006;4.720;2024-01-15T11:35:50;100167.72;;;4.10;100.00
18436;BME280;9346;52.006;4.720;2024-01-15T11:38:44;100195.41;;;4.19;100.00
18436;BME280;9346;52.006;4.720;2024-01-15T11:41:19;100198.94;;;4.03;100.00
18436;BME280;9346;52.006;4.720;2024-01-15T11:46:37;100202.13;;;3.67;100.00
18436;BME280;9346;52.006;4.720;2024-01-15T11:49:21;100208.06;;;3.64;100.00
18436;BME280;9346;52.006;4.720;2024-01-15T11:52:05;100200.97;;;3.63;100.00
18436;BME280;9346;52.006;4.720;2024-01-15T11:54:37;100195.16;;;3.59;100.00
18436;BME280;9346;52.006;4.720;2024-01-15T11:57:10;100207.38;;;3.57;100.00
18436;BME280;9346;52.006;4.720;2024-01-15T11:59:41;100202.78;;;3.57;100.00
18436;BME280;9346;52.006;4.720;2024-01-15T12:02:15;100202.78;;;3.57;100.00
18436;BME280;9346;52.006;4.720;2024-01-15T12:04:44;100209.63;;;3.60;100.00
18436;BME280;9346;52.006;4.720;2024-01-15T12:07:11;100197.31;;;3.57;100.00
18436;BME280;9346;52.006;4.720;2024-01-15T12:09:44;100216.63;;;3.56;100.00
18436;BME280;9346;52.006;4.720;2024-01-15T12:12:16;100219.91;;;3.58;100.00
18436;BME280;9346;52.006;4.720;2024-01-15T12:14:48;100230.00;;;3.57;100.00
18436;BME280;9346;52.006;4.720;2024-01-15T12:17:16;100225.59;;;3.56;100.00
18436;BME280;9346;52.006;4.720;2024-01-15T12:19:43;100230.00;;;3.57;100.00
18436;BME280;9346;52.006;4.720;2024-01-15T12:22:15;100231.28;;;3.55;100.00
18436;BME280;9346;52.006;4.720;2024-01-15T12:24:46;100228.56;;;3.55;100.00
18436;BME280;9346;52.006;4.720;2024-01-15T12:27:17;100219.91;;;3.58;100.00
18436;BME280;9346;52.006;4.720;2024-01-15T12:29:58;100218.63;;;3.60;100.00
18436;BME280;9346;52.006;4.720;2024-01-15T12:32:40;100218.94;;;3.64;100.00
18436;BME280;9346;52.006;4.720;2024-01-15T12:35:08;100232.19;;;3.72;100.00
18436;BME280;9346;52.006;4.720;2024-01-15T12:37:35;100229.72;;;3.70;100.00
18436;BME280;9346;52.006;4.720;2024-01-15T12:40:28;100219.53;;;3.66;100.00
18436;BME280;9346;52.006;4.720;2024-01-15T12:43:09;100223.59;;;3.63;100.00
18436;BME280;9346;52.006;4.720;2024-01-15T12:45:37;100223.00;;;3.61;100.00
18436;BME280;9346;52.006;4.720;2024-01-15T12:48:04;100236.00;;;3.59;100.00
18436;BME280;9346;52.006;4.720;2024-01-15T12:50:33;100245.03;;;3.60;100.00
18436;BME280;9346;52.006;4.720;2024-01-15T12:53:01;100248.34;;;3.62;100.00
18436;BME280;9346;52.006;4.720;2024-01-15T12:55:37;100239.94;;;3.63;100.00
18436;BME280;9346;52.006;4.720;2024-01-15T12:58:06;100239.44;;;3.66;100.00
18436;BME280;9346;52.006;4.720;2024-01-15T13:00:33;100241.09;;;3.67;100.00
18436;BME280;9346;52.006;4.720;2024-01-15T13:03:00;100234.31;;;3.70;100.00
18436;BME280;9346;52.006;4.720;2024-01-15T13:05:29;100237.94;;;3.75;100.00
18436;BME280;9346;52.006;4.720;2024-01-15T13:07:58;100238.06;;;3.80;100.00
18436;BME280;9346;52.006;4.720;2024-01-15T13:10:24;100236.25;;;3.86;100.00
18436;BME280;9346;52.006;4.720;2024-01-15T13:12:57;100237.16;;;3.91;100.00
18436;BME280;9346;52.006;4.720;2024-01-15T13:15:23;100238.66;;;3.99;100.00
18436;BME280;9346;52.006;4.720;2024-01-15T13:17:50;100216.22;;;4.08;100.00
18436;BME280;9346;52.006;4.720;2024-01-15T13:20:19;100241.66;;;4.14;100.00
18436;BME280;9346;52.006;4.720;2024-01-15T13:26:16;100227.53;;;4.17;100.00
18436;BME280;9346;52.006;4.720;2024-01-15T13:28:55;100235.88;;;4.10;100.00
18436;BME280;9346;52.006;4.720;2024-01-15T13:41:56;100247.25;;;3.91;100.00